Time;durP1;ratioP1;P1;durP2;ratioP2;P2;SDS_P1;SDS_P2;PMS_P1;PMS_P2;Temp;Humidity;BMP_temperature;BMP_pressure;BME280_temperature;BME280_humidity;BME280_pressure;Samples;Min_cycle;Max_cycle;Signal;HPM_P1;HPM_P2
2022/08/11 04:02:45;;;;;;;5.47;4.90;;;16.10;99.90;;;;;;5164528;23;20504;-70
2022/08/11 04:05:36;;;;;;;5.33;5.03;;;16.10;99.90;;;;;;4890267;29;20813;-70
2022/08/11 04:08:30;;;;;;;5.80;5.30;;;16.10;99.90;;;;;;4891875;29;20792;-70
2022/08/11 04:11:30;;;;;;;7.67;5.67;;;16.10;99.90;;;;;;4892473;29;20848;-70
2022/08/11 04:18:10;;;;;;;5.43;5.13;;;16.10;99.90;;;;;;4891697;29;20535;-71
2022/08/11 04:21:19;;;;;;;5.47;5.17;;;16.10;99.90;;;;;;4838412;29;20595;-70
2022/08/11 04:24:03;;;;;;;6.17;5.60;;;16.00;99.90;;;;;;4904284;29;20847;-70
2022/08/11 04:27:08;;;;;;;5.43;5.00;;;16.10;99.90;;;;;;4896811;29;20466;-71
2022/08/11 04:29:45;;;;;;;6.50;6.10;;;16.10;99.90;;;;;;4875443;29;20506;-70
2022/08/11 04:32:35;;;;;;;6.50;5.53;;;16.10;99.90;;;;;;4896996;29;20504;-70
2022/08/11 04:35:25;;;;;;;5.50;5.20;;;16.00;99.90;;;;;;4889824;29;20499;-71
2022/08/11 04:38:15;;;;;;;5.70;5.30;;;16.10;99.90;;;;;;4891259;29;20991;-71
2022/08/11 04:43:19;;;;;;;5.73;5.23;;;16.10;99.90;;;;;;4895546;29;20522;-70
2022/08/11 04:44:45;;;;;;;5.60;5.30;;;16.10;99.90;;;;;;4867272;29;20561;-70
2022/08/11 05:03:09;;;;;;;4.07;3.90;;;19.80;99.90;;;;;;4894695;29;20968;-70
2022/08/11 05:06:18;;;;;;;4.20;4.00;;;19.70;99.90;;;;;;4891452;29;20480;-71
2022/08/11 05:09:13;;;;;;;4.27;4.07;;;19.50;99.90;;;;;;4883742;29;21412;-71
2022/08/11 05:12:18;;;;;;;4.67;4.20;;;19.80;99.90;;;;;;4894189;29;21044;-71
2022/08/11 05:34:51;;;;;;;4.50;4.30;;;18.40;99.90;;;;;;4866876;29;20470;-70
2022/08/11 05:37:24;;;;;;;4.90;4.53;;;18.40;99.90;;;;;;4867562;29;20475;-71
2022/08/11 05:56:44;;;;;;;5.03;4.63;;;18.10;99.90;;;;;;4870293;29;20491;-70
2022/08/11 05:59:18;;;;;;;5.57;5.27;;;18.10;99.90;;;;;;4878613;29;20469;-70
2022/08/11 06:01:46;;;;;;;6.83;6.30;;;18.10;99.90;;;;;;4909317;29;20501;-70
2022/08/11 06:04:18;;;;;;;6.57;5.93;;;18.10;99.90;;;;;;4908824;29;20490;-70
2022/08/11 06:06:51;;;;;;;6.30;5.60;;;18.20;99.90;;;;;;4902950;29;20470;-70
2022/08/11 06:09:23;;;;;;;5.37;5.00;;;18.20;99.90;;;;;;4908796;29;20545;-69
2022/08/11 06:11:52;;;;;;;5.53;5.00;;;18.80;99.90;;;;;;4906714;29;20503;-70
2022/08/11 06:14:21;;;;;;;5.30;5.10;;;19.80;99.90;;;;;;4898288;29;20538;-70
2022/08/11 06:16:50;;;;;;;6.13;5.57;;;20.70;99.90;;;;;;4905907;29;20476;-71
2022/08/11 06:19:22;;;;;;;5.50;5.20;;;21.70;99.90;;;;;;4904828;29;20470;-71
2022/08/11 06:21:50;;;;;;;5.40;5.17;;;22.60;99.90;;;;;;4905919;29;20730;-71
2022/08/11 06:24:18;;;;;;;5.30;5.00;;;23.40;99.90;;;;;;4902802;29;20524;-70
2022/08/11 06:26:49;;;;;;;4.87;4.77;;;23.80;99.90;;;;;;4903518;29;20499;-70
2022/08/11 06:29:17;;;;;;;4.63;4.20;;;24.30;99.90;;;;;;4903023;29;20476;-70
2022/08/11 06:31:53;;;;;;;3.60;3.40;;;24.80;99.90;;;;;;4898056;29;20493;-71
2022/08/11 06:34:32;;;;;;;3.97;3.67;;;25.50;99.90;;;;;;4897974;29;20629;-70
2022/08/11 06:37:11;;;;;;;3.40;3.30;;;26.10;99.90;;;;;;4895991;29;20474;-70
2022/08/11 06:39:47;;;;;;;3.60;3.50;;;26.70;99.90;;;;;;4894205;29;20478;-70
2022/08/11 06:42:28;;;;;;;3.80;3.50;;;27.10;99.90;;;;;;4890446;29;20493;-70
2022/08/11 06:45:07;;;;;;;3.10;2.90;;;27.50;99.90;;;;;;4894765;29;20974;-70
2022/08/11 06:47:35;;;;;;;3.10;3.00;;;27.90;99.90;;;;;;4902187;29;20242;-68
2022/08/11 06:52:48;;;;;;;2.97;2.87;;;28.70;99.90;;;;;;4901920;29;20480;-68
2022/08/11 07:00:26;;;;;;;2.97;2.87;;;28.80;99.50;;;;;;4904061;29;20530;-70
2022/08/11 07:01:06;;;;;;;3.27;3.07;;;29.10;98.70;;;;;;4897000;29;20517;-69
2022/08/11 07:03:40;;;;;;;2.90;2.80;;;29.50;97.80;;;;;;4899828;29;21244;-70
2022/08/11 07:06:21;;;;;;;3.10;3.00;;;29.80;96.90;;;;;;4900900;29;20489;-68
2022/08/11 07:17:48;;;;;;;2.53;2.53;;;30.40;93.80;;;;;;4898449;29;20840;-68
2022/08/11 07:28:58;;;;;;;2.80;2.70;;;31.40;91.80;;;;;;4897483;29;20510;-70
2022/08/11 07:31:31;;;;;;;2.80;2.70;;;31.20;91.30;;;;;;4897301;29;20505;-70
2022/08/11 07:34:12;;;;;;;3.10;2.80;;;31.00;91.30;;;;;;4895345;29;20573;-70
2022/08/11 07:36:46;;;;;;;3.30;3.20;;;30.50;91.50;;;;;;4896386;29;20483;-69
2022/08/11 07:39:19;;;;;;;3.50;3.30;;;29.70;92.50;;;;;;4886485;29;20470;-69
2022/08/11 07:41:47;;;;;;;3.00;3.00;;;29.10;92.60;;;;;;4895011;29;20494;-68
2022/08/11 07:44:15;;;;;;;2.87;2.87;;;28.50;93.30;;;;;;4895581;29;20540;-69
2022/08/11 07:52:31;;;;;;;4.40;3.40;;;27.40;95.00;;;;;;4896674;29;20370;-68
2022/08/11 07:55:00;;;;;;;3.27;3.07;;;27.00;95.50;;;;;;4896069;29;20468;-69
2022/08/11 08:19:32;;;;;;;3.10;2.93;;;25.60;97.60;;;;;;4894288;29;20467;-68
2022/08/11 08:21:59;;;;;;;5.43;3.50;;;25.50;98.70;;;;;;4896128;29;20928;-68
2022/08/11 08:24:29;;;;;;;3.07;2.90;;;25.30;99.20;;;;;;4896311;29;20931;-68
2022/08/11 08:27:00;;;;;;;2.93;2.83;;;25.30;99.50;;;;;;4892692;29;20464;-68
2022/08/11 08:32:16;;;;;;;3.10;3.00;;;25.20;99.90;;;;;;4891765;29;20638;-68
2022/08/11 08:34:43;;;;;;;3.10;2.87;;;25.20;99.50;;;;;;4896060;29;20997;-68
2022/08/11 08:37:10;;;;;;;2.97;2.77;;;25.10;99.60;;;;;;4895736;29;20472;-68
2022/08/11 08:39:39;;;;;;;3.43;3.13;;;25.20;99.10;;;;;;4895359;29;20475;-68
2022/08/11 08:42:10;;;;;;;3.03;2.97;;;25.20;99.10;;;;;;4895924;29;20827;-69
2022/08/11 08:44:42;;;;;;;2.90;2.70;;;25.20;99.10;;;;;;4894224;29;20560;-69
2022/08/11 08:47:14;;;;;;;3.13;2.93;;;25.20;99.10;;;;;;4894981;29;20818;-69
2022/08/11 08:49:48;;;;;;;3.03;2.83;;;25.20;99.60;;;;;;4895894;29;20475;-68
2022/08/11 08:52:18;;;;;;;3.00;2.90;;;25.20;98.80;;;;;;4893957;29;20494;-69
2022/08/11 08:54:52;;;;;;;3.27;3.10;;;25.10;98.50;;;;;;4894403;29;20488;-69
2022/08/11 08:57:22;;;;;;;2.70;2.60;;;25.10;98.20;;;;;;4895601;29;20563;-69
2022/08/11 08:59:50;;;;;;;2.67;2.57;;;25.10;98.20;;;;;;4895847;29;20471;-68
2022/08/11 09:02:18;;;;;;;2.90;2.80;;;25.30;98.50;;;;;;4894031;29;20500;-68
2022/08/11 09:04:47;;;;;;;2.37;2.23;;;25.30;98.10;;;;;;4893021;29;20486;-69
2022/08/11 09:07:20;;;;;;;2.80;2.70;;;25.30;97.00;;;;;;4895363;29;20575;-71
2022/08/11 09:09:51;;;;;;;2.87;2.70;;;25.30;97.20;;;;;;4893995;29;20555;-69
2022/08/11 09:12:20;;;;;;;2.87;2.77;;;25.30;97.00;;;;;;4896104;29;20553;-68
2022/08/11 09:15:02;;;;;;;4.00;2.60;;;25.40;96.40;;;;;;4894925;29;20472;-69
2022/08/11 09:17:31;;;;;;;2.60;2.60;;;25.60;95.90;;;;;;4894654;29;20850;-69
2022/08/11 09:20:04;;;;;;;2.80;2.70;;;25.80;95.20;;;;;;4893983;29;20527;-69
2022/08/11 09:28:09;;;;;;;3.33;3.23;;;25.80;94.90;;;;;;4893463;29;20466;-69
2022/08/11 09:30:37;;;;;;;3.07;2.97;;;25.70;94.90;;;;;;4895542;29;20525;-69
2022/08/11 09:33:05;;;;;;;3.20;3.00;;;25.80;94.30;;;;;;4892386;29;20472;-68
2022/08/11 09:35:35;;;;;;;3.30;3.30;;;25.90;94.00;;;;;;4894816;29;20476;-68
2022/08/11 09:41:05;;;;;;;3.70;3.60;;;26.00;93.70;;;;;;4855330;29;20481;-68
2022/08/11 09:46:22;;;;;;;3.20;3.20;;;26.00;94.00;;;;;;4875344;29;20467;-69
2022/08/11 09:48:52;;;;;;;2.90;2.90;;;26.00;94.10;;;;;;4894624;29;20472;-69
2022/08/11 09:51:22;;;;;;;3.60;3.50;;;26.10;93.80;;;;;;4891308;29;20583;-69
2022/08/11 09:53:50;;;;;;;3.27;3.17;;;26.10;93.80;;;;;;4894282;29;20479;-70
2022/08/11 09:59:06;;;;;;;3.10;2.90;;;26.20;93.60;;;;;;4890929;29;20568;-68
2022/08/11 10:01:40;;;;;;;2.80;2.80;;;26.20;93.80;;;;;;4895629;29;20487;-67
2022/08/11 10:04:14;;;;;;;3.20;3.07;;;26.20;93.40;;;;;;4899724;29;20992;-68
2022/08/11 10:09:26;;;;;;;3.13;3.03;;;26.30;93.90;;;;;;4893889;29;20470;-68
2022/08/11 10:11:59;;;;;;;3.00;2.90;;;26.40;93.10;;;;;;4892123;29;20799;-69
2022/08/11 10:17:14;;;;;;;3.10;2.97;;;26.50;93.50;;;;;;4888701;29;20475;-69
2022/08/11 10:19:43;;;;;;;3.67;3.47;;;26.60;92.30;;;;;;4893731;29;20476;-69
2022/08/11 10:27:43;;;;;;;3.77;3.40;;;26.60;91.80;;;;;;4889185;29;20584;-70
2022/08/11 10:35:43;;;;;;;3.03;3.00;;;26.80;92.10;;;;;;4884077;29;20830;-69
2022/08/11 10:38:13;;;;;;;2.90;2.90;;;26.90;91.50;;;;;;4890573;29;20475;-70
2022/08/11 10:40:45;;;;;;;3.27;3.00;;;26.90;90.80;;;;;;4893690;29;20483;-70
2022/08/11 10:43:14;;;;;;;3.70;3.40;;;27.00;90.20;;;;;;4893704;29;20973;-70
2022/08/11 10:48:30;;;;;;;4.60;3.00;;;27.10;90.10;;;;;;4895259;29;20479;-70
2022/08/11 10:59:15;;;;;;;2.93;2.53;;;27.10;90.50;;;;;;4890364;29;20651;-70
2022/08/11 11:01:43;;;;;;;2.70;2.70;;;27.20;90.50;;;;;;4893112;29;20551;-70
2022/08/11 11:04:13;;;;;;;2.70;2.70;;;27.30;89.90;;;;;;4892020;29;20583;-69
2022/08/11 11:06:48;;;;;;;3.43;3.23;;;27.40;90.00;;;;;;4889827;29;20549;-69
2022/08/11 11:09:19;;;;;;;3.17;3.00;;;27.50;89.00;;;;;;4892957;29;20988;-69
2022/08/11 11:20:18;;;;;;;2.67;2.67;;;27.60;85.60;;;;;;4913099;29;21211;-71
2022/08/11 11:22:51;;;;;;;2.63;2.60;;;27.60;86.10;;;;;;4906103;29;20459;-71
2022/08/11 11:25:28;;;;;;;3.20;3.00;;;27.60;86.20;;;;;;4891868;29;20495;-71
2022/08/11 11:28:28;;;;;;;2.97;2.90;;;27.70;84.90;;;;;;4894683;29;20482;-70
2022/08/11 11:31:10;;;;;;;2.97;2.90;;;27.90;83.60;;;;;;4894786;29;21082;-71
2022/08/11 11:33:54;;;;;;;2.73;2.63;;;28.00;82.80;;;;;;4897131;29;20488;-71
2022/08/11 11:36:28;;;;;;;3.20;3.10;;;28.00;82.40;;;;;;4896999;29;20472;-71
2022/08/11 11:38:56;;;;;;;2.90;2.80;;;27.90;83.70;;;;;;4890569;29;20490;-70
2022/08/11 11:41:26;;;;;;;2.90;2.80;;;27.90;84.70;;;;;;4896194;29;21030;-70
2022/08/11 11:43:55;;;;;;;2.60;2.50;;;27.90;84.20;;;;;;4895455;29;20491;-72
2022/08/11 11:46:24;;;;;;;3.60;3.40;;;28.00;83.90;;;;;;4895865;29;20476;-71
2022/08/11 11:48:52;;;;;;;3.80;2.70;;;27.90;84.30;;;;;;4897421;29;20464;-70
2022/08/11 11:51:19;;;;;;;3.10;3.00;;;27.90;85.40;;;;;;4893547;29;21025;-70
2022/08/11 11:53:47;;;;;;;3.03;2.93;;;27.80;85.00;;;;;;4897105;29;20498;-72
2022/08/11 11:56:15;;;;;;;2.90;2.80;;;27.90;84.60;;;;;;4896199;29;20992;-72
2022/08/11 12:01:29;;;;;;;3.10;3.00;;;27.80;84.20;;;;;;4894086;29;20539;-71
2022/08/11 12:03:57;;;;;;;2.80;2.70;;;27.90;83.10;;;;;;4896869;29;20909;-71
2022/08/11 12:06:26;;;;;;;3.00;2.80;;;28.00;83.50;;;;;;4895160;29;20478;-71
2022/08/11 12:08:55;;;;;;;2.73;2.63;;;28.00;83.70;;;;;;4893933;29;20541;-72
2022/08/11 12:14:09;;;;;;;3.10;2.90;;;28.00;83.10;;;;;;4895939;29;20506;-71
2022/08/11 12:16:40;;;;;;;3.17;2.97;;;28.10;83.50;;;;;;4895256;29;20989;-71
2022/08/11 12:19:10;;;;;;;2.20;2.10;;;28.20;82.80;;;;;;4896306;29;20480;-72
2022/08/11 12:27:19;;;;;;;2.80;2.67;;;28.30;81.10;;;;;;4895141;29;20826;-71
2022/08/11 12:27:21;;;;;;;2.40;2.40;;;28.40;79.70;;;;;;4889954;29;20913;-72
2022/08/11 12:29:49;;;;;;;2.40;2.40;;;28.30;78.50;;;;;;4894196;29;21166;-71
2022/08/11 12:32:19;;;;;;;2.40;2.30;;;28.20;78.90;;;;;;4893711;29;20492;-72
2022/08/11 12:34:46;;;;;;;1.90;1.90;;;28.30;79.70;;;;;;4896127;29;20581;-70
2022/08/11 12:37:15;;;;;;;2.70;2.60;;;28.30;78.50;;;;;;4893626;29;20476;-71
2022/08/11 12:45:28;;;;;;;2.00;2.00;;;28.30;78.00;;;;;;4893624;29;20557;-70
2022/08/11 12:53:42;;;;;;;2.53;2.30;;;28.40;77.90;;;;;;4893342;29;20554;-71
2022/08/11 13:07:12;;;;;;;2.00;2.00;;;28.60;75.10;;;;;;4893074;29;20470;-72
2022/08/11 13:09:41;;;;;;;4.60;2.97;;;28.50;74.40;;;;;;4895579;29;20846;-71
2022/08/11 13:14:54;;;;;;;2.07;2.07;;;28.50;74.40;;;;;;4891809;29;20856;-70
2022/08/11 13:17:21;;;;;;;2.40;2.20;;;28.60;74.10;;;;;;4893872;29;20478;-71
2022/08/11 13:19:52;;;;;;;1.87;1.80;;;28.70;74.30;;;;;;4894687;29;20944;-72
2022/08/11 13:22:21;;;;;;;1.77;1.67;;;28.70;72.20;;;;;;4894480;29;20464;-71
2022/08/11 13:24:49;;;;;;;2.27;2.27;;;28.70;72.70;;;;;;4895537;29;20842;-70
2022/08/11 13:27:17;;;;;;;1.80;1.80;;;28.70;72.10;;;;;;4892363;29;20527;-71
2022/08/11 13:29:45;;;;;;;2.00;2.00;;;28.70;71.40;;;;;;4892293;29;20547;-72
2022/08/11 13:32:14;;;;;;;2.00;2.00;;;28.70;71.00;;;;;;4894586;29;20495;-72
2022/08/11 13:34:42;;;;;;;2.40;1.70;;;28.70;70.40;;;;;;4895472;29;20491;-72
2022/08/11 13:37:13;;;;;;;1.63;1.63;;;28.80;68.70;;;;;;4895049;29;20478;-73
2022/08/11 13:39:43;;;;;;;1.70;1.70;;;28.80;68.60;;;;;;4896681;29;20551;-71
2022/08/11 13:42:10;;;;;;;1.80;1.80;;;28.80;69.30;;;;;;4888690;29;20888;-70
2022/08/11 13:44:38;;;;;;;2.10;2.00;;;28.80;69.30;;;;;;4892825;29;20496;-69
2022/08/11 13:47:07;;;;;;;1.53;1.53;;;28.80;68.20;;;;;;4892515;29;20473;-72
2022/08/11 13:49:37;;;;;;;1.40;1.40;;;28.80;66.80;;;;;;4895512;29;20536;-71
2022/08/11 13:52:05;;;;;;;1.93;1.70;;;28.70;67.50;;;;;;4890930;29;20859;-73
2022/08/11 13:54:38;;;;;;;2.40;1.60;;;28.80;67.80;;;;;;4894235;29;20523;-69
2022/08/11 13:57:06;;;;;;;1.73;1.73;;;29.00;68.40;;;;;;4891425;29;20515;-70
2022/08/11 13:59:34;;;;;;;2.40;2.30;;;29.00;67.70;;;;;;4895248;29;20807;-70
2022/08/11 14:02:03;;;;;;;2.33;2.17;;;29.00;67.30;;;;;;4887993;29;20475;-73
2022/08/11 14:04:34;;;;;;;1.50;1.50;;;29.00;66.40;;;;;;4894287;29;20487;-71
2022/08/11 14:07:06;;;;;;;1.80;1.80;;;28.90;66.10;;;;;;4892020;29;20520;-72
2022/08/11 14:09:37;;;;;;;1.87;1.87;;;28.80;66.10;;;;;;4894992;29;20460;-71
2022/08/11 14:14:59;;;;;;;1.50;1.50;;;28.90;66.60;;;;;;4889939;29;20900;-70
2022/08/11 14:17:27;;;;;;;1.40;1.40;;;28.90;65.40;;;;;;4895296;29;20829;-71
2022/08/11 14:19:54;;;;;;;1.70;1.70;;;28.90;66.50;;;;;;4891587;29;20552;-71
2022/08/11 14:22:21;;;;;;;1.70;1.70;;;29.00;66.10;;;;;;4893787;29;20464;-70
2022/08/11 14:24:49;;;;;;;1.60;1.50;;;29.00;65.90;;;;;;4893270;29;20491;-71
2022/08/11 14:27:17;;;;;;;1.50;1.40;;;29.00;65.30;;;;;;4886637;29;20478;-71
2022/08/11 14:29:46;;;;;;;1.60;1.60;;;29.00;66.20;;;;;;4893695;29;20476;-71
2022/08/11 14:32:14;;;;;;;1.83;1.73;;;29.00;65.60;;;;;;4893421;29;20491;-71
2022/08/11 14:34:42;;;;;;;1.53;1.37;;;29.00;66.90;;;;;;4892221;29;20511;-71
2022/08/11 14:37:12;;;;;;;1.70;1.70;;;29.00;66.50;;;;;;4891664;29;20479;-71
2022/08/11 14:39:42;;;;;;;1.50;1.50;;;29.00;65.80;;;;;;4894602;29;20475;-71
2022/08/11 14:47:48;;;;;;;1.80;1.70;;;29.00;65.00;;;;;;4888975;29;20460;-72
2022/08/11 14:50:17;;;;;;;1.60;1.50;;;29.00;65.50;;;;;;4893578;29;20480;-71
2022/08/11 14:52:49;;;;;;;1.40;1.30;;;29.10;64.90;;;;;;4894753;29;20578;-71
2022/08/11 14:58:03;;;;;;;3.97;1.80;;;29.10;64.70;;;;;;4889961;29;20596;-71
2022/08/11 15:00:31;;;;;;;1.27;1.23;;;29.10;64.40;;;;;;4893661;29;20547;-70
2022/08/11 15:03:11;;;;;;;1.20;1.20;;;29.10;63.40;;;;;;4891625;29;20471;-70
2022/08/11 15:05:42;;;;;;;1.60;1.60;;;29.10;64.00;;;;;;4891434;29;21195;-71
2022/08/11 15:08:10;;;;;;;2.00;1.80;;;29.20;65.00;;;;;;4892332;29;20559;-71
2022/08/11 15:10:37;;;;;;;1.90;1.30;;;29.20;65.30;;;;;;4896831;29;20487;-70
2022/08/11 15:13:05;;;;;;;1.33;1.30;;;29.20;66.20;;;;;;4890055;29;20495;-72
2022/08/11 15:18:22;;;;;;;1.40;1.40;;;29.20;66.70;;;;;;4897502;29;20467;-73
2022/08/11 15:37:25;;;;;;;2.10;1.40;;;29.10;68.50;;;;;;4896242;29;20809;-72
2022/08/11 15:37:44;;;;;;;1.47;1.47;;;29.40;65.90;;;;;;4890198;29;20737;-72
2022/08/11 15:45:55;;;;;;;1.80;1.80;;;29.40;66.80;;;;;;4893778;29;20471;-71
2022/08/11 15:48:29;;;;;;;1.30;1.30;;;29.40;66.10;;;;;;4896311;29;20479;-72
2022/08/11 15:50:58;;;;;;;1.83;1.50;;;29.40;66.80;;;;;;4895838;29;20556;-71
2022/08/11 15:53:32;;;;;;;2.30;2.30;;;29.40;67.10;;;;;;4895260;29;20497;-72
2022/08/11 15:56:01;;;;;;;1.50;1.50;;;29.40;68.10;;;;;;4896266;29;20496;-72
2022/08/11 16:04:11;;;;;;;1.80;1.70;;;29.50;69.00;;;;;;4894375;29;20571;-71
2022/08/11 16:06:44;;;;;;;2.30;1.73;;;29.50;68.40;;;;;;4896518;29;20472;-72
2022/08/11 16:09:14;;;;;;;2.83;1.60;;;29.60;68.10;;;;;;4895383;29;20479;-72
2022/08/11 16:11:42;;;;;;;2.20;2.00;;;29.50;68.00;;;;;;4895424;29;20486;-71
2022/08/11 16:16:58;;;;;;;1.90;1.90;;;29.40;67.90;;;;;;4890887;29;20455;-71
2022/08/11 16:19:33;;;;;;;1.40;1.40;;;29.30;68.30;;;;;;4895591;29;20476;-71
2022/08/11 16:22:01;;;;;;;1.33;1.33;;;29.30;68.70;;;;;;4896663;29;20503;-70
2022/08/11 16:24:28;;;;;;;1.67;1.67;;;29.30;69.80;;;;;;4893273;29;20499;-70
2022/08/11 16:26:58;;;;;;;1.83;1.30;;;29.40;68.90;;;;;;4895284;29;20476;-71
2022/08/11 16:29:26;;;;;;;1.70;1.60;;;29.40;68.70;;;;;;4893572;29;20483;-70
2022/08/11 16:40:13;;;;;;;1.80;1.60;;;29.20;67.60;;;;;;4894094;29;20511;-71
2022/08/11 16:48:37;;;;;;;2.40;1.77;;;29.20;68.20;;;;;;4868047;29;20525;-68
2022/08/11 16:51:06;;;;;;;1.50;1.50;;;29.10;68.00;;;;;;4885450;29;20467;-71
2022/08/11 16:53:32;;;;;;;1.50;1.50;;;29.10;68.00;;;;;;4895666;29;20515;-70
2022/08/11 16:56:03;;;;;;;1.30;1.30;;;29.00;67.10;;;;;;4894675;29;20475;-70
2022/08/11 17:01:20;;;;;;;3.10;1.60;;;29.00;67.60;;;;;;4894267;29;20868;-70
2022/08/11 17:16:05;;;;;;;1.17;1.17;;;28.70;67.60;;;;;;4892665;29;20549;-70
2022/08/11 17:17:57;;;;;;;2.47;1.63;;;28.60;67.10;;;;;;4889089;29;20511;-69
2022/08/11 17:20:25;;;;;;;1.33;1.23;;;28.50;68.20;;;;;;4894620;29;20528;-70
2022/08/11 17:25:41;;;;;;;1.50;1.40;;;28.20;70.00;;;;;;4894734;29;20471;-70
2022/08/11 17:28:10;;;;;;;1.90;1.20;;;28.10;70.80;;;;;;4892818;29;20480;-71
2022/08/11 17:36:10;;;;;;;1.37;1.27;;;27.80;71.80;;;;;;4894473;29;20466;-70
2022/08/11 17:38:39;;;;;;;1.77;1.77;;;27.70;72.00;;;;;;4894281;29;20535;-70
2022/08/11 17:49:26;;;;;;;2.17;1.80;;;27.30;74.20;;;;;;4893056;29;20464;-71
2022/08/11 18:00:12;;;;;;;2.43;1.70;;;26.90;76.60;;;;;;4890536;29;20478;-70
2022/08/11 18:05:27;;;;;;;1.70;1.60;;;26.70;77.20;;;;;;4891904;29;20923;-72
